Stokesdale, North Carolina
Current Conditions -  °F | °C
As of 11:54 PM on Wednesday 26 Nov 2014 (Local Time) from KGSO Reporting Station
Light Rain Light Rain  
Wind Chill: 41°   Ceiling: 2800
Heat Index: 41°   Visibility: 4mi
Dew Point: 39°   Wind: 0mph
Humidity: 93%   Direction: NA
Pressure: 30.03"   Gusts: NA
Location:  36.24°N, 79.98°W
Report Text: KGSO 270454Z 00000KT 4SM -RA BR SCT017 BKN028 OVC033 05/04 A3003 RMK AO2 SLP173 P0013 T00500039 400830033
Loading
Personal Weather Stations






























Interactive Weather Map New forecast layout! Learn more

10-Day Weather Forecast

Advertisements
Track Severe Weather on mobile